sensor_id;sensor_type;location;lat;lon;timestamp;pressure;altitude;pressure_sealevel;temperature;humidity
48810;BME280;40070;47.322;18.784;2023-07-02T00:01:36;993.07;;;22.39;64.52
48810;BME280;40070;47.322;18.784;2023-07-02T00:03:38;993.06;;;22.33;64.41
48810;BME280;40070;47.322;18.784;2023-07-02T00:05:41;993.07;;;22.37;64.36
48810;BME280;40070;47.322;18.784;2023-07-02T00:07:44;993.08;;;22.27;64.66
48810;BME280;40070;47.322;18.784;2023-07-02T00:09:46;993.10;;;22.29;64.56
48810;BME280;40070;47.322;18.784;2023-07-02T00:11:48;993.09;;;22.46;64.03
48810;BME280;40070;47.322;18.784;2023-07-02T00:13:51;993.04;;;22.43;64.11
48810;BME280;40070;47.322;18.784;2023-07-02T00:15:54;993.06;;;22.36;63.95
48810;BME280;40070;47.322;18.784;2023-07-02T00:17:56;993.05;;;22.37;63.89
48810;BME280;40070;47.322;18.784;2023-07-02T00:19:59;993.07;;;22.25;63.91
48810;BME280;40070;47.322;18.784;2023-07-02T00:22:01;993.06;;;22.04;64.70
48810;BME280;40070;47.322;18.784;2023-07-02T00:24:04;993.03;;;22.20;64.11
48810;BME280;40070;47.322;18.784;2023-07-02T00:26:06;993.06;;;22.26;63.97
48810;BME280;40070;47.322;18.784;2023-07-02T00:28:09;993.03;;;22.11;64.30
48810;BME280;40070;47.322;18.784;2023-07-02T00:30:11;993.03;;;22.18;64.16
48810;BME280;40070;47.322;18.784;2023-07-02T00:32:14;993.04;;;21.95;64.67
48810;BME280;40070;47.322;18.784;2023-07-02T00:34:17;993.06;;;22.02;64.64
48810;BME280;40070;47.322;18.784;2023-07-02T00:36:20;993.01;;;21.92;64.81
48810;BME280;40070;47.322;18.784;2023-07-02T00:38:22;993.02;;;21.90;64.85
48810;BME280;40070;47.322;18.784;2023-07-02T00:40:26;993.04;;;22.12;64.10
48810;BME280;40070;47.322;18.784;2023-07-02T00:42:29;993.04;;;22.17;63.88
48810;BME280;40070;47.322;18.784;2023-07-02T00:44:31;993.04;;;22.25;63.53
48810;BME280;40070;47.322;18.784;2023-07-02T00:46:34;993.10;;;22.36;62.88
48810;BME280;40070;47.322;18.784;2023-07-02T00:48:38;993.06;;;22.36;63.00
48810;BME280;40070;47.322;18.784;2023-07-02T00:50:40;993.05;;;22.30;63.03
48810;BME280;40070;47.322;18.784;2023-07-02T00:52:43;993.05;;;22.28;62.86
48810;BME280;40070;47.322;18.784;2023-07-02T00:54:46;993.05;;;22.28;62.98
48810;BME280;40070;47.322;18.784;2023-07-02T00:56:48;993.01;;;22.18;63.27
48810;BME280;40070;47.322;18.784;2023-07-02T00:58:52;993.03;;;22.00;63.94
48810;BME280;40070;47.322;18.784;2023-07-02T01:00:55;993.04;;;22.07;63.76
48810;BME280;40070;47.322;18.784;2023-07-02T01:02:57;993.04;;;22.00;63.95
48810;BME280;40070;47.322;18.784;2023-07-02T01:05:00;993.03;;;22.10;63.85
48810;BME280;40070;47.322;18.784;2023-07-02T01:07:02;993.05;;;21.98;64.31
48810;BME280;40070;47.322;18.784;2023-07-02T01:09:05;993.06;;;21.98;64.41
48810;BME280;40070;47.322;18.784;2023-07-02T01:11:08;993.09;;;22.13;63.91
48810;BME280;40070;47.322;18.784;2023-07-02T01:13:12;993.07;;;22.21;63.68
48810;BME280;40070;47.322;18.784;2023-07-02T01:15:17;993.10;;;22.31;63.44
48810;BME280;40070;47.322;18.784;2023-07-02T01:17:19;993.11;;;22.23;63.63
48810;BME280;40070;47.322;18.784;2023-07-02T01:19:30;993.05;;;22.17;63.82
48810;BME280;40070;47.322;18.784;2023-07-02T01:21:33;993.08;;;22.07;64.39
48810;BME280;40070;47.322;18.784;2023-07-02T01:23:36;993.06;;;22.10;64.45
48810;BME280;40070;47.322;18.784;2023-07-02T01:25:38;993.02;;;22.15;64.16
48810;BME280;40070;47.322;18.784;2023-07-02T01:27:41;993.08;;;22.06;64.42
48810;BME280;40070;47.322;18.784;2023-07-02T01:29:43;993.04;;;22.16;64.28
48810;BME280;40070;47.322;18.784;2023-07-02T01:31:47;993.05;;;22.02;64.56
48810;BME280;40070;47.322;18.784;2023-07-02T01:33:49;993.04;;;22.15;64.21
48810;BME280;40070;47.322;18.784;2023-07-02T01:35:52;993.10;;;22.13;64.24
48810;BME280;40070;47.322;18.784;2023-07-02T01:37:54;993.13;;;22.14;64.57
48810;BME280;40070;47.322;18.784;2023-07-02T01:39:56;993.15;;;22.17;64.20
48810;BME280;40070;47.322;18.784;2023-07-02T01:42:12;993.14;;;22.22;63.89
48810;BME280;40070;47.322;18.784;2023-07-02T01:44:15;993.14;;;22.23;63.64
48810;BME280;40070;47.322;18.784;2023-07-02T01:46:17;993.15;;;22.23;63.59
48810;BME280;40070;47.322;18.784;2023-07-02T01:48:19;993.16;;;22.25;63.50
48810;BME280;40070;47.322;18.784;2023-07-02T01:50:22;993.13;;;22.03;64.19
48810;BME280;40070;47.322;18.784;2023-07-02T01:52:25;993.13;;;22.12;63.74
48810;BME280;40070;47.322;18.784;2023-07-02T01:54:27;993.12;;;22.10;63.91
48810;BME280;40070;47.322;18.784;2023-07-02T01:56:30;993.09;;;22.09;63.86
48810;BME280;40070;47.322;18.784;2023-07-02T01:58:32;993.08;;;22.26;62.79
48810;BME280;40070;47.322;18.784;2023-07-02T02:00:35;993.07;;;22.11;63.22
48810;BME280;40070;47.322;18.784;2023-07-02T02:02:37;993.05;;;22.08;63.11
48810;BME280;40070;47.322;18.784;2023-07-02T02:04:40;993.02;;;22.08;62.80
48810;BME280;40070;47.322;18.784;2023-07-02T02:06:42;993.02;;;21.83;63.31
48810;BME280;40070;47.322;18.784;2023-07-02T02:08:45;993.03;;;21.73;63.40
48810;BME280;40070;47.322;18.784;2023-07-02T02:10:47;993.00;;;21.73;63.46
48810;BME280;40070;47.322;18.784;2023-07-02T02:12:50;993.01;;;21.57;63.82
48810;BME280;40070;47.322;18.784;2023-07-02T02:14:52;993.00;;;21.74;63.27
48810;BME280;40070;47.322;18.784;2023-07-02T02:16:54;992.98;;;21.70;62.86
48810;BME280;40070;47.322;18.784;2023-07-02T02:18:57;992.98;;;21.82;62.60
48810;BME280;40070;47.322;18.784;2023-07-02T02:21:00;992.95;;;21.82;62.50
48810;BME280;40070;47.322;18.784;2023-07-02T02:23:02;992.94;;;21.70;62.60
48810;BME280;40070;47.322;18.784;2023-07-02T02:25:05;992.92;;;21.80;62.48
48810;BME280;40070;47.322;18.784;2023-07-02T02:27:07;992.91;;;21.90;62.00
48810;BME280;40070;47.322;18.784;2023-07-02T02:29:10;992.91;;;21.97;61.76
48810;BME280;40070;47.322;18.784;2023-07-02T02:31:12;992.88;;;21.82;62.03
48810;BME280;40070;47.322;18.784;2023-07-02T02:33:15;992.88;;;21.84;62.05
48810;BME280;40070;47.322;18.784;2023-07-02T02:35:17;992.92;;;21.63;62.74
48810;BME280;40070;47.322;18.784;2023-07-02T02:37:20;992.90;;;21.71;62.67
48810;BME280;40070;47.322;18.784;2023-07-02T02:39:22;992.91;;;21.66;62.90
48810;BME280;40070;47.322;18.784;2023-07-02T02:41:25;992.91;;;21.41;63.65
48810;BME280;40070;47.322;18.784;2023-07-02T02:43:27;992.95;;;21.40;63.67
48810;BME280;40070;47.322;18.784;2023-07-02T02:45:30;992.92;;;21.39;63.76
48810;BME280;40070;47.322;18.784;2023-07-02T02:47:33;992.92;;;21.42;63.74
48810;BME280;40070;47.322;18.784;2023-07-02T02:49:36;992.91;;;21.20;64.39
48810;BME280;40070;47.322;18.784;2023-07-02T02:51:39;992.91;;;21.33;64.02
48810;BME280;40070;47.322;18.784;2023-07-02T02:53:41;992.95;;;21.27;64.10
48810;BME280;40070;47.322;18.784;2023-07-02T02:55:44;992.98;;;21.42;63.61
48810;BME280;40070;47.322;18.784;2023-07-02T02:57:46;992.97;;;21.43;63.49
48810;BME280;40070;47.322;18.784;2023-07-02T02:59:49;992.96;;;21.45;63.35
48810;BME280;40070;47.322;18.784;2023-07-02T03:01:51;993.03;;;21.57;62.95
48810;BME280;40070;47.322;18.784;2023-07-02T03:03:54;992.99;;;21.46;63.32
48810;BME280;40070;47.322;18.784;2023-07-02T03:05:56;992.99;;;21.51;63.19
48810;BME280;40070;47.322;18.784;2023-07-02T03:07:59;993.00;;;21.31;63.71
48810;BME280;40070;47.322;18.784;2023-07-02T03:10:01;993.02;;;21.29;63.86
48810;BME280;40070;47.322;18.784;2023-07-02T03:12:04;993.03;;;21.27;63.80
48810;BME280;40070;47.322;18.784;2023-07-02T03:14:07;993.01;;;21.30;63.68
48810;BME280;40070;47.322;18.784;2023-07-02T03:16:10;993.05;;;21.36;63.55
48810;BME280;40070;47.322;18.784;2023-07-02T03:18:12;993.05;;;21.34;63.62
48810;BME280;40070;47.322;18.784;2023-07-02T03:20:15;993.03;;;21.46;63.07
48810;BME280;40070;47.322;18.784;2023-07-02T03:22:17;993.06;;;21.42;63.01
48810;BME280;40070;47.322;18.784;2023-07-02T03:24:20;993.07;;;21.29;63.43
48810;BME280;40070;47.322;18.784;2023-07-02T03:26:22;993.10;;;21.27;63.57
48810;BME280;40070;47.322;18.784;2023-07-02T03:28:25;993.12;;;21.30;63.29
48810;BME280;40070;47.322;18.784;2023-07-02T03:30:27;993.12;;;21.42;63.11
48810;BME280;40070;47.322;18.784;2023-07-02T03:32:30;993.13;;;21.39;63.05
48810;BME280;40070;47.322;18.784;2023-07-02T03:34:32;993.16;;;21.41;62.79
48810;BME280;40070;47.322;18.784;2023-07-02T03:36:35;993.19;;;21.36;63.10
48810;BME280;40070;47.322;18.784;2023-07-02T03:38:38;993.25;;;21.31;63.14
48810;BME280;40070;47.322;18.784;2023-07-02T03:40:40;993.20;;;21.44;62.61
48810;BME280;40070;47.322;18.784;2023-07-02T03:42:43;993.24;;;21.27;62.87
48810;BME280;40070;47.322;18.784;2023-07-02T03:44:45;993.20;;;21.33;62.67
48810;BME280;40070;47.322;18.784;2023-07-02T03:46:48;993.23;;;21.35;62.70
48810;BME280;40070;47.322;18.784;2023-07-02T03:48:50;993.21;;;21.56;62.04
48810;BME280;40070;47.322;18.784;2023-07-02T03:50:53;993.21;;;21.41;62.23
48810;BME280;40070;47.322;18.784;2023-07-02T03:52:55;993.21;;;21.33;62.57
48810;BME280;40070;47.322;18.784;2023-07-02T03:54:58;993.23;;;21.32;62.60
48810;BME280;40070;47.322;18.784;2023-07-02T03:57:00;993.23;;;21.55;61.94
48810;BME280;40070;47.322;18.784;2023-07-02T03:59:03;993.21;;;21.62;61.64
48810;BME280;40070;47.322;18.784;2023-07-02T04:01:05;993.27;;;21.71;61.18
48810;BME280;40070;47.322;18.784;2023-07-02T04:03:08;993.26;;;21.76;60.98
48810;BME280;40070;47.322;18.784;2023-07-02T04:05:10;993.30;;;21.72;61.07
48810;BME280;40070;47.322;18.784;2023-07-02T04:07:13;993.33;;;21.81;60.75
48810;BME280;40070;47.322;18.784;2023-07-02T04:09:15;993.33;;;21.73;61.09
48810;BME280;40070;47.322;18.784;2023-07-02T04:11:18;993.35;;;21.55;61.47
48810;BME280;40070;47.322;18.784;2023-07-02T04:13:20;993.37;;;21.80;60.71
48810;BME280;40070;47.322;18.784;2023-07-02T04:15:23;993.38;;;21.79;60.75
48810;BME280;40070;47.322;18.784;2023-07-02T04:17:25;993.43;;;21.79;60.73
48810;BME280;40070;47.322;18.784;2023-07-02T04:19:28;993.41;;;21.77;60.64
48810;BME280;40070;47.322;18.784;2023-07-02T04:21:30;993.45;;;21.84;60.39
48810;BME280;40070;47.322;18.784;2023-07-02T04:23:33;993.44;;;21.75;60.47
48810;BME280;40070;47.322;18.784;2023-07-02T04:25:35;993.47;;;21.75;60.12
48810;BME280;40070;47.322;18.784;2023-07-02T04:27:37;993.50;;;21.87;59.72
48810;BME280;40070;47.322;18.784;2023-07-02T04:29:40;993.55;;;21.74;60.34
48810;BME280;40070;47.322;18.784;2023-07-02T04:31:42;993.58;;;21.72;60.20
48810;BME280;40070;47.322;18.784;2023-07-02T04:33:45;993.61;;;21.89;59.81
48810;BME280;40070;47.322;18.784;2023-07-02T04:35:47;993.62;;;22.05;59.38
48810;BME280;40070;47.322;18.784;2023-07-02T04:37:50;993.64;;;21.93;59.45
48810;BME280;40070;47.322;18.784;2023-07-02T04:39:52;993.64;;;21.82;59.69
48810;BME280;40070;47.322;18.784;2023-07-02T04:41:55;993.64;;;21.88;59.62
48810;BME280;40070;47.322;18.784;2023-07-02T04:43:57;993.65;;;21.97;59.24
48810;BME280;40070;47.322;18.784;2023-07-02T04:46:00;993.63;;;21.87;59.69
48810;BME280;40070;47.322;18.784;2023-07-02T04:48:03;993.66;;;22.16;59.00
48810;BME280;40070;47.322;18.784;2023-07-02T04:50:05;993.69;;;22.19;59.08
48810;BME280;40070;47.322;18.784;2023-07-02T04:52:08;993.72;;;22.17;58.91
48810;BME280;40070;47.322;18.784;2023-07-02T04:54:10;993.77;;;22.34;58.54
48810;BME280;40070;47.322;18.784;2023-07-02T04:56:13;993.76;;;22.43;57.89
48810;BME280;40070;47.322;18.784;2023-07-02T04:58:15;993.78;;;22.51;57.58
48810;BME280;40070;47.322;18.784;2023-07-02T05:00:18;993.79;;;22.59;57.63
48810;BME280;40070;47.322;18.784;2023-07-02T05:02:21;993.83;;;22.66;57.50
48810;BME280;40070;47.322;18.784;2023-07-02T05:04:23;993.89;;;22.82;56.63
48810;BME280;40070;47.322;18.784;2023-07-02T05:06:26;993.88;;;22.63;57.79
48810;BME280;40070;47.322;18.784;2023-07-02T05:08:28;993.91;;;22.90;57.09
48810;BME280;40070;47.322;18.784;2023-07-02T05:10:31;993.90;;;22.93;56.61
48810;BME280;40070;47.322;18.784;2023-07-02T05:12:33;993.87;;;22.97;57.02
48810;BME280;40070;47.322;18.784;2023-07-02T05:14:36;993.89;;;22.85;56.14
48810;BME280;40070;47.322;18.784;2023-07-02T05:16:38;993.92;;;23.10;55.80
48810;BME280;40070;47.322;18.784;2023-07-02T05:18:41;993.91;;;23.07;55.84
48810;BME280;40070;47.322;18.784;2023-07-02T05:20:43;993.94;;;23.35;55.34
48810;BME280;40070;47.322;18.784;2023-07-02T05:22:46;993.94;;;23.39;55.45
48810;BME280;40070;47.322;18.784;2023-07-02T05:24:48;994.02;;;23.86;55.24
48810;BME280;40070;47.322;18.784;2023-07-02T05:26:51;994.01;;;23.82;55.40
48810;BME280;40070;47.322;18.784;2023-07-02T05:28:53;993.98;;;23.62;55.75
48810;BME280;40070;47.322;18.784;2023-07-02T05:30:56;994.01;;;23.82;55.37
48810;BME280;40070;47.322;18.784;2023-07-02T05:32:58;994.05;;;23.46;54.85
48810;BME280;40070;47.322;18.784;2023-07-02T05:35:01;994.06;;;23.55;55.55
48810;BME280;40070;47.322;18.784;2023-07-02T05:37:03;994.06;;;23.71;54.81
48810;BME280;40070;47.322;18.784;2023-07-02T05:39:06;994.04;;;23.87;53.92
48810;BME280;40070;47.322;18.784;2023-07-02T05:41:08;994.06;;;23.82;54.10
48810;BME280;40070;47.322;18.784;2023-07-02T05:43:11;994.04;;;23.47;54.67
48810;BME280;40070;47.322;18.784;2023-07-02T05:45:13;994.06;;;23.56;55.32
48810;BME280;40070;47.322;18.784;2023-07-02T05:47:16;994.01;;;23.68;54.32
48810;BME280;40070;47.322;18.784;2023-07-02T05:49:18;994.06;;;23.37;54.33
48810;BME280;40070;47.322;18.784;2023-07-02T05:51:21;994.09;;;23.32;54.62
48810;BME280;40070;47.322;18.784;2023-07-02T05:53:23;994.06;;;23.15;55.58
48810;BME280;40070;47.322;18.784;2023-07-02T05:55:26;994.11;;;23.41;54.88
48810;BME280;40070;47.322;18.784;2023-07-02T05:57:28;994.11;;;23.59;55.01
48810;BME280;40070;47.322;18.784;2023-07-02T05:59:31;994.11;;;23.58;55.35
48810;BME280;40070;47.322;18.784;2023-07-02T06:01:33;994.13;;;23.56;54.70
48810;BME280;40070;47.322;18.784;2023-07-02T06:03:36;994.13;;;23.77;54.12
48810;BME280;40070;47.322;18.784;2023-07-02T06:05:38;994.15;;;23.69;53.91
48810;BME280;40070;47.322;18.784;2023-07-02T06:07:41;994.16;;;24.04;53.30
48810;BME280;40070;47.322;18.784;2023-07-02T06:09:43;994.16;;;23.76;53.83
48810;BME280;40070;47.322;18.784;2023-07-02T06:11:46;994.19;;;23.96;53.11
48810;BME280;40070;47.322;18.784;2023-07-02T06:13:48;994.12;;;24.01;53.29
48810;BME280;40070;47.322;18.784;2023-07-02T06:15:51;994.17;;;23.99;53.38
48810;BME280;40070;47.322;18.784;2023-07-02T06:17:53;994.12;;;24.17;53.44
48810;BME280;40070;47.322;18.784;2023-07-02T06:19:56;994.11;;;24.28;53.11
48810;BME280;40070;47.322;18.784;2023-07-02T06:21:58;994.10;;;24.38;53.56
48810;BME280;40070;47.322;18.784;2023-07-02T06:24:01;994.11;;;24.55;52.66
48810;BME280;40070;47.322;18.784;2023-07-02T06:26:04;994.19;;;24.58;52.47
48810;BME280;40070;47.322;18.784;2023-07-02T06:28:06;994.21;;;24.51;52.99
48810;BME280;40070;47.322;18.784;2023-07-02T06:30:09;994.24;;;24.67;52.54
48810;BME280;40070;47.322;18.784;2023-07-02T06:32:11;994.23;;;24.62;52.81
48810;BME280;40070;47.322;18.784;2023-07-02T06:34:14;994.18;;;24.71;53.25
48810;BME280;40070;47.322;18.784;2023-07-02T06:36:16;994.21;;;24.92;52.17
48810;BME280;40070;47.322;18.784;2023-07-02T06:38:19;994.22;;;24.78;51.25
48810;BME280;40070;47.322;18.784;2023-07-02T06:40:21;994.26;;;24.74;50.75
48810;BME280;40070;47.322;18.784;2023-07-02T06:42:24;994.38;;;24.74;51.58
48810;BME280;40070;47.322;18.784;2023-07-02T06:44:27;994.30;;;24.97;51.14
48810;BME280;40070;47.322;18.784;2023-07-02T06:46:29;994.30;;;24.99;51.18
48810;BME280;40070;47.322;18.784;2023-07-02T06:48:32;994.30;;;24.92;50.00
48810;BME280;40070;47.322;18.784;2023-07-02T06:50:34;994.31;;;24.74;50.05
48810;BME280;40070;47.322;18.784;2023-07-02T06:52:37;994.30;;;24.53;50.12
48810;BME280;40070;47.322;18.784;2023-07-02T06:54:39;994.38;;;24.70;49.77
48810;BME280;40070;47.322;18.784;2023-07-02T06:56:42;994.39;;;24.67;49.77
48810;BME280;40070;47.322;18.784;2023-07-02T06:58:44;994.37;;;24.73;49.87
48810;BME280;40070;47.322;18.784;2023-07-02T07:00:47;994.40;;;24.57;49.94
48810;BME280;40070;47.322;18.784;2023-07-02T07:02:50;994.46;;;24.79;48.93
48810;BME280;40070;47.322;18.784;2023-07-02T07:04:52;994.50;;;24.71;49.40
48810;BME280;40070;47.322;18.784;2023-07-02T07:06:55;994.50;;;25.08;49.23
48810;BME280;40070;47.322;18.784;2023-07-02T07:08:57;994.50;;;25.08;49.72
48810;BME280;40070;47.322;18.784;2023-07-02T07:11:00;994.46;;;25.18;49.74
48810;BME280;40070;47.322;18.784;2023-07-02T07:13:02;994.45;;;25.45;48.87
48810;BME280;40070;47.322;18.784;2023-07-02T07:15:05;994.46;;;25.29;48.58
48810;BME280;40070;47.322;18.784;2023-07-02T07:17:07;994.47;;;25.37;48.40
48810;BME280;40070;47.322;18.784;2023-07-02T07:19:10;994.52;;;25.68;48.45
48810;BME280;40070;47.322;18.784;2023-07-02T07:21:12;994.49;;;25.86;48.40
48810;BME280;40070;47.322;18.784;2023-07-02T07:23:15;994.56;;;26.00;47.57
48810;BME280;40070;47.322;18.784;2023-07-02T07:25:18;994.54;;;26.07;46.93
48810;BME280;40070;47.322;18.784;2023-07-02T07:27:20;994.52;;;26.42;46.20
48810;BME280;40070;47.322;18.784;2023-07-02T07:29:23;994.56;;;26.20;46.65
48810;BME280;40070;47.322;18.784;2023-07-02T07:31:25;994.54;;;26.66;46.43
48810;BME280;40070;47.322;18.784;2023-07-02T07:33:28;994.53;;;26.83;47.09
48810;BME280;40070;47.322;18.784;2023-07-02T07:35:31;994.53;;;26.88;45.65
48810;BME280;40070;47.322;18.784;2023-07-02T07:37:33;994.51;;;26.82;45.28
48810;BME280;40070;47.322;18.784;2023-07-02T07:39:36;994.60;;;26.55;45.38
48810;BME280;40070;47.322;18.784;2023-07-02T07:41:38;994.59;;;26.46;46.90
48810;BME280;40070;47.322;18.784;2023-07-02T07:43:41;994.64;;;26.34;46.03
48810;BME280;40070;47.322;18.784;2023-07-02T07:45:44;994.64;;;26.35;46.22
48810;BME280;40070;47.322;18.784;2023-07-02T07:47:46;994.64;;;26.10;46.70
48810;BME280;40070;47.322;18.784;2023-07-02T07:49:49;994.67;;;26.24;47.13
48810;BME280;40070;47.322;18.784;2023-07-02T07:51:51;994.69;;;26.49;46.44
48810;BME280;40070;47.322;18.784;2023-07-02T07:53:53;994.72;;;26.19;46.60
48810;BME280;40070;47.322;18.784;2023-07-02T07:55:56;994.69;;;26.04;46.97
48810;BME280;40070;47.322;18.784;2023-07-02T07:57:58;994.78;;;25.78;47.31
48810;BME280;40070;47.322;18.784;2023-07-02T08:00:02;994.78;;;25.57;47.66
48810;BME280;40070;47.322;18.784;2023-07-02T08:02:04;994.85;;;25.57;48.04
48810;BME280;40070;47.322;18.784;2023-07-02T08:04:07;994.89;;;25.45;48.02
48810;BME280;40070;47.322;18.784;2023-07-02T08:06:10;994.87;;;25.46;48.08
48810;BME280;40070;47.322;18.784;2023-07-02T08:08:12;994.88;;;25.43;47.85
48810;BME280;40070;47.322;18.784;2023-07-02T08:10:15;994.89;;;25.43;48.16
48810;BME280;40070;47.322;18.784;2023-07-02T08:12:17;994.91;;;25.31;48.51
48810;BME280;40070;47.322;18.784;2023-07-02T08:14:20;994.91;;;25.48;49.11
48810;BME280;40070;47.322;18.784;2023-07-02T08:16:22;994.92;;;25.74;48.00
48810;BME280;40070;47.322;18.784;2023-07-02T08:18:25;994.94;;;26.08;48.03
48810;BME280;40070;47.322;18.784;2023-07-02T08:20:27;994.92;;;25.56;47.01
48810;BME280;40070;47.322;18.784;2023-07-02T08:22:30;994.94;;;25.52;47.31
48810;BME280;40070;47.322;18.784;2023-07-02T08:24:32;994.97;;;25.58;47.73
48810;BME280;40070;47.322;18.784;2023-07-02T08:26:35;995.00;;;25.65;46.96
48810;BME280;40070;47.322;18.784;2023-07-02T08:28:38;995.00;;;25.61;46.65
48810;BME280;40070;47.322;18.784;2023-07-02T08:30:41;995.03;;;26.17;46.46
48810;BME280;40070;47.322;18.784;2023-07-02T08:32:43;995.00;;;26.42;46.47
48810;BME280;40070;47.322;18.784;2023-07-02T08:34:46;994.97;;;26.66;46.33
48810;BME280;40070;47.322;18.784;2023-07-02T08:36:48;994.95;;;26.69;45.62
48810;BME280;40070;47.322;18.784;2023-07-02T08:38:51;995.01;;;26.64;45.88
48810;BME280;40070;47.322;18.784;2023-07-02T08:40:53;995.01;;;26.59;47.58
48810;BME280;40070;47.322;18.784;2023-07-02T08:42:56;994.98;;;26.54;45.57
48810;BME280;40070;47.322;18.784;2023-07-02T08:44:59;994.96;;;26.53;45.21
48810;BME280;40070;47.322;18.784;2023-07-02T08:47:01;994.94;;;26.82;44.00
48810;BME280;40070;47.322;18.784;2023-07-02T08:49:04;994.98;;;26.79;43.63
48810;BME280;40070;47.322;18.784;2023-07-02T08:51:06;994.99;;;26.74;43.92
48810;BME280;40070;47.322;18.784;2023-07-02T08:53:09;994.99;;;26.87;44.09
48810;BME280;40070;47.322;18.784;2023-07-02T08:55:12;994.98;;;27.22;43.60
48810;BME280;40070;47.322;18.784;2023-07-02T08:57:14;994.99;;;27.44;42.94
48810;BME280;40070;47.322;18.784;2023-07-02T08:59:17;994.99;;;27.68;41.98
48810;BME280;40070;47.322;18.784;2023-07-02T09:01:19;995.01;;;27.80;41.85
48810;BME280;40070;47.322;18.784;2023-07-02T09:03:22;995.04;;;28.02;41.38
48810;BME280;40070;47.322;18.784;2023-07-02T09:05:27;995.01;;;28.28;41.63
48810;BME280;40070;47.322;18.784;2023-07-02T09:07:30;995.01;;;28.39;39.71
48810;BME280;40070;47.322;18.784;2023-07-02T09:09:33;995.00;;;28.53;39.85
48810;BME280;40070;47.322;18.784;2023-07-02T09:11:35;995.04;;;28.51;40.28
48810;BME280;40070;47.322;18.784;2023-07-02T09:13:51;995.00;;;28.39;40.77
48810;BME280;40070;47.322;18.784;2023-07-02T09:15:54;995.04;;;28.19;40.78
48810;BME280;40070;47.322;18.784;2023-07-02T09:17:57;994.99;;;28.02;41.51
48810;BME280;40070;47.322;18.784;2023-07-02T09:19:59;995.06;;;28.33;41.79
48810;BME280;40070;47.322;18.784;2023-07-02T09:22:02;995.05;;;28.36;42.14
48810;BME280;40070;47.322;18.784;2023-07-02T09:24:17;995.02;;;28.38;41.84
48810;BME280;40070;47.322;18.784;2023-07-02T09:26:23;995.02;;;27.98;42.01
48810;BME280;40070;47.322;18.784;2023-07-02T09:28:26;995.07;;;27.72;42.27
48810;BME280;40070;47.322;18.784;2023-07-02T09:30:28;995.06;;;27.60;41.74
48810;BME280;40070;47.322;18.784;2023-07-02T09:32:31;995.05;;;27.79;40.82
48810;BME280;40070;47.322;18.784;2023-07-02T09:34:34;995.05;;;28.27;39.06
48810;BME280;40070;47.322;18.784;2023-07-02T09:36:36;995.11;;;28.56;38.22
48810;BME280;40070;47.322;18.784;2023-07-02T09:38:39;995.04;;;29.01;37.98
48810;BME280;40070;47.322;18.784;2023-07-02T09:40:52;995.07;;;29.23;37.82
48810;BME280;40070;47.322;18.784;2023-07-02T09:42:55;995.08;;;29.40;38.19
48810;BME280;40070;47.322;18.784;2023-07-02T09:44:59;995.01;;;29.62;37.99
48810;BME280;40070;47.322;18.784;2023-07-02T09:47:06;995.00;;;29.94;38.27
48810;BME280;40070;47.322;18.784;2023-07-02T09:49:10;995.05;;;30.08;37.66
48810;BME280;40070;47.322;18.784;2023-07-02T09:51:14;995.04;;;29.72;35.40
48810;BME280;40070;47.322;18.784;2023-07-02T09:53:17;995.10;;;29.46;36.10
48810;BME280;40070;47.322;18.784;2023-07-02T09:55:21;995.05;;;29.57;36.72
48810;BME280;40070;47.322;18.784;2023-07-02T09:57:23;995.01;;;29.74;37.09
48810;BME280;40070;47.322;18.784;2023-07-02T09:59:26;995.08;;;29.56;37.78
48810;BME280;40070;47.322;18.784;2023-07-02T10:01:28;995.08;;;30.04;37.53
48810;BME280;40070;47.322;18.784;2023-07-02T10:03:31;995.06;;;30.40;36.97
48810;BME280;40070;47.322;18.784;2023-07-02T10:05:34;995.06;;;30.59;37.34
48810;BME280;40070;47.322;18.784;2023-07-02T10:07:36;995.16;;;29.97;37.96
48810;BME280;40070;47.322;18.784;2023-07-02T10:09:40;995.05;;;29.94;37.45
48810;BME280;40070;47.322;18.784;2023-07-02T10:11:43;995.04;;;30.13;37.02
48810;BME280;40070;47.322;18.784;2023-07-02T10:13:45;994.94;;;30.42;36.71
48810;BME280;40070;47.322;18.784;2023-07-02T10:15:48;995.04;;;30.30;37.42
48810;BME280;40070;47.322;18.784;2023-07-02T10:18:03;995.14;;;30.44;36.46
48810;BME280;40070;47.322;18.784;2023-07-02T10:20:06;995.07;;;30.08;36.45
48810;BME280;40070;47.322;18.784;2023-07-02T10:22:09;995.11;;;30.14;36.53
48810;BME280;40070;47.322;18.784;2023-07-02T10:24:15;995.04;;;30.52;36.28
48810;BME280;40070;47.322;18.784;2023-07-02T10:26:18;995.02;;;30.83;36.53
48810;BME280;40070;47.322;18.784;2023-07-02T10:28:21;995.01;;;30.81;36.18
48810;BME280;40070;47.322;18.784;2023-07-02T10:30:33;994.96;;;30.67;35.24
48810;BME280;40070;47.322;18.784;2023-07-02T10:32:36;994.90;;;30.98;35.66
48810;BME280;40070;47.322;18.784;2023-07-02T10:34:39;994.91;;;31.33;35.33
48810;BME280;40070;47.322;18.784;2023-07-02T10:36:41;994.92;;;31.58;34.21
48810;BME280;40070;47.322;18.784;2023-07-02T10:38:44;994.95;;;31.48;34.38
48810;BME280;40070;47.322;18.784;2023-07-02T10:40:46;994.91;;;31.35;34.76
48810;BME280;40070;47.322;18.784;2023-07-02T10:42:50;994.95;;;31.36;35.24
48810;BME280;40070;47.322;18.784;2023-07-02T10:44:52;994.98;;;31.46;35.46
48810;BME280;40070;47.322;18.784;2023-07-02T10:46:55;994.99;;;31.38;35.22
48810;BME280;40070;47.322;18.784;2023-07-02T10:48:57;994.96;;;30.92;36.60
48810;BME280;40070;47.322;18.784;2023-07-02T10:51:01;994.90;;;30.86;36.16
48810;BME280;40070;47.322;18.784;2023-07-02T10:53:15;994.96;;;30.57;36.86
48810;BME280;40070;47.322;18.784;2023-07-02T10:55:19;995.02;;;30.60;35.99
48810;BME280;40070;47.322;18.784;2023-07-02T10:57:21;994.94;;;30.75;35.85
48810;BME280;40070;47.322;18.784;2023-07-02T10:59:24;994.92;;;30.98;35.88